Search for airport 
image banner adimage banner adimage banner ad
image banner ad

KLSV - Nellis Afb

Located in Las Vegas, United States

ICAO - LSV, IATA - LSV

Data provided by Airmate  

General information

Coordinates: N36°14'10" W115°2'3"
Elevation is 1869 feet MSL.
Magnetic variation is 12° East
View others Airports in Nevada

Operational data

Special qualification required
Current time UTC:
Current local time:
Weather
TAF: TAF AMD KLSV 091040Z 0910/1013 04012G20KT 9999 SKC QNH2982INS BECMG 0914/0915 04008KT 9999 SKC QNH2974INS BECMG 0920/0921 15006KT 9999 SKC QNH2963INS BECMG 0923/0924 21010G18KT 9999 SKC QNH2964INS BECMG 1003/1004 32008KT 9999 SKC QNH2966INS TX31/0923Z TN16/0913Z
View NOTAMs / SUP AIP / TFR affecting this airport [VIEW]
Communications frequencies: [VIEW]

Runways:

RWY identifierQFULength (ft)Width (ft)SurfaceLDA (ft)
03R41°10051150CONC
21L221°10051150CONC
03L41°10120200CONC
21R221°10120200CONC

Airport contact information

Address: Las Vegas United States

Satellite view of KLSV